Time;durP1;ratioP1;P1;durP2;ratioP2;P2;SDS_P1;SDS_P2;PMS_P1;PMS_P2;Temp;Humidity;BMP_temperature;BMP_pressure;BME280_temperature;BME280_humidity;BME280_pressure;Samples;Min_cycle;Max_cycle;Signal;HPM_P1;HPM_P2
2021/10/11 00:01:01;;;;;;;18.92;2.83;;;;;;;11.88;68.97;101043.69;5016184;28;20061;-75
2021/10/11 00:03:28;;;;;;;17.27;2.70;;;;;;;11.92;68.13;101052.16;5012675;28;20041;-75
2021/10/11 00:05:53;;;;;;;15.90;2.22;;;;;;;12.06;67.54;101047.53;5011566;28;20046;-75
2021/10/11 00:08:19;;;;;;;16.10;2.65;;;;;;;12.10;67.15;101041.47;5025242;28;20377;-75
2021/10/11 00:10:44;;;;;;;16.38;3.20;;;;;;;11.80;67.63;101025.88;5025064;28;20525;-75
2021/10/11 00:13:10;;;;;;;14.18;2.10;;;;;;;11.94;66.93;101032.03;5026891;28;20041;-75
2021/10/11 00:15:36;;;;;;;15.50;2.47;;;;;;;11.99;66.63;101032.19;5030733;28;20034;-75
2021/10/11 00:18:01;;;;;;;11.40;1.95;;;;;;;12.10;66.07;101033.34;5013795;28;20483;-75
2021/10/11 00:20:27;;;;;;;24.00;2.70;;;;;;;11.96;66.08;101016.44;5011174;28;20542;-75
2021/10/11 00:22:53;;;;;;;11.98;2.17;;;;;;;11.92;66.32;101015.22;5014033;28;20026;-75
2021/10/11 00:25:18;;;;;;;13.50;1.95;;;;;;;11.97;65.96;101018.09;5029530;28;20517;-75
2021/10/11 00:27:44;;;;;;;9.50;1.67;;;;;;;12.02;65.56;101022.03;5029414;28;20410;-75
2021/10/11 00:30:12;;;;;;;12.80;1.70;;;;;;;11.93;65.87;101030.38;5014285;28;20141;-75
2021/10/11 00:32:38;;;;;;;13.98;1.83;;;;;;;12.03;65.44;101034.47;5014513;28;20034;-75
2021/10/11 00:35:05;;;;;;;8.40;1.67;;;;;;;12.00;65.74;101031.16;5024398;28;20063;-75
2021/10/11 00:37:30;;;;;;;21.80;2.63;;;;;;;11.89;65.92;101031.00;5012139;28;20488;-75
2021/10/11 00:39:56;;;;;;;12.23;1.52;;;;;;;11.86;66.13;101018.78;5024281;28;20030;-74
2021/10/11 00:42:22;;;;;;;13.68;1.67;;;;;;;12.03;65.50;101018.28;5016596;28;20119;-74
2021/10/11 00:44:48;;;;;;;12.73;2.15;;;;;;;11.94;65.56;101020.38;5024822;28;20479;-74
2021/10/11 00:47:14;;;;;;;16.48;1.98;;;;;;;11.91;65.45;101024.38;5013042;28;20656;-74
2021/10/11 00:49:39;;;;;;;15.85;2.67;;;;;;;11.92;65.54;101017.06;5022454;28;20535;-74
2021/10/11 00:52:05;;;;;;;12.15;1.83;;;;;;;11.86;65.83;101043.09;5011348;28;20029;-75
2021/10/11 00:54:32;;;;;;;7.78;1.67;;;;;;;11.73;66.62;101059.38;5023549;28;20082;-75
2021/10/11 00:56:57;;;;;;;11.15;1.73;;;;;;;11.71;66.76;101064.97;5024662;28;20398;-75
2021/10/11 00:59:23;;;;;;;10.25;1.45;;;;;;;11.72;66.74;101055.84;5020278;28;20133;-75
2021/10/11 01:01:49;;;;;;;12.50;1.75;;;;;;;11.75;66.41;101063.50;5030520;28;20038;-75
2021/10/11 01:04:15;;;;;;;14.27;1.67;;;;;;;11.80;66.06;101047.47;5014771;28;20033;-75
2021/10/11 01:06:42;;;;;;;11.77;1.70;;;;;;;11.68;66.78;101036.56;5028800;28;20064;-75
2021/10/11 01:09:10;;;;;;;17.33;2.20;;;;;;;11.71;66.32;101038.84;5030482;28;20475;-75
2021/10/11 01:11:37;;;;;;;16.08;1.73;;;;;;;11.71;66.34;101046.09;5026333;28;20030;-75
2021/10/11 01:14:04;;;;;;;16.33;1.70;;;;;;;11.53;66.72;101044.16;5019377;28;20095;-75
2021/10/11 01:16:30;;;;;;;11.75;1.77;;;;;;;11.53;66.49;101033.34;5015540;28;20129;-75
2021/10/11 01:18:56;;;;;;;14.32;1.92;;;;;;;11.60;66.27;101044.09;5023465;28;20049;-75
2021/10/11 01:21:23;;;;;;;14.80;2.40;;;;;;;11.78;65.71;101046.88;5022260;28;20030;-75
2021/10/11 01:23:50;;;;;;;20.05;2.38;;;;;;;11.73;66.21;101049.41;5018031;28;20530;-74
2021/10/11 01:26:16;;;;;;;13.57;2.13;;;;;;;11.88;65.38;101050.97;5028571;28;20025;-74
2021/10/11 01:28:41;;;;;;;15.93;2.33;;;;;;;11.95;65.50;101030.13;5023390;28;20045;-74
2021/10/11 01:31:07;;;;;;;13.38;1.92;;;;;;;12.11;64.65;101026.91;5015992;28;20030;-74
2021/10/11 01:33:33;;;;;;;15.80;1.73;;;;;;;12.06;64.96;101036.75;5016821;28;20061;-75
2021/10/11 01:35:59;;;;;;;18.33;2.22;;;;;;;12.06;65.37;101042.13;5018106;28;20052;-75
2021/10/11 01:38:26;;;;;;;15.65;3.25;;;;;;;11.93;65.80;101040.31;5020037;28;20061;-73
2021/10/11 01:40:52;;;;;;;16.63;2.17;;;;;;;12.06;65.60;101034.03;5012133;28;20041;-75
2021/10/11 01:43:17;;;;;;;22.35;2.75;;;;;;;11.94;65.82;101026.63;5021713;28;20040;-75
2021/10/11 01:45:49;;;;;;;19.10;2.17;;;;;;;11.97;66.03;101006.44;5016653;28;20033;-75
2021/10/11 01:48:15;;;;;;;16.70;2.20;;;;;;;12.04;65.68;101017.22;5023757;28;20029;-75
2021/10/11 01:50:41;;;;;;;17.42;2.35;;;;;;;12.18;65.13;101020.63;5019474;28;20040;-75
2021/10/11 01:53:07;;;;;;;17.38;2.45;;;;;;;11.89;66.11;101012.97;5019227;28;20034;-75
2021/10/11 01:55:32;;;;;;;10.25;1.85;;;;;;;11.79;65.99;101012.63;5016160;28;20045;-75
2021/10/11 01:57:58;;;;;;;19.85;2.42;;;;;;;12.10;65.18;101011.75;5017821;28;20041;-75
2021/10/11 02:00:24;;;;;;;21.20;2.47;;;;;;;11.85;66.12;100999.06;5014046;28;20048;-75
2021/10/11 02:02:50;;;;;;;11.00;2.15;;;;;;;11.96;65.77;100996.69;5020568;28;20396;-73
2021/10/11 02:05:15;;;;;;;14.18;2.13;;;;;;;11.96;65.37;100988.59;5022847;28;20037;-74
2021/10/11 02:07:41;;;;;;;12.68;2.28;;;;;;;11.85;65.54;100990.16;5011028;28;20096;-73
2021/10/11 02:10:07;;;;;;;20.67;2.10;;;;;;;11.77;66.28;101001.22;5022033;28;20424;-73
2021/10/11 02:12:33;;;;;;;17.25;2.15;;;;;;;11.88;65.81;101022.09;5014865;28;20391;-73
2021/10/11 02:14:59;;;;;;;17.83;2.50;;;;;;;12.00;65.45;101023.06;5018454;28;20037;-74
2021/10/11 02:17:24;;;;;;;17.13;2.63;;;;;;;11.97;65.85;101017.25;5030326;28;20061;-74
2021/10/11 02:19:50;;;;;;;21.45;2.60;;;;;;;11.99;65.80;101012.44;5024202;28;20888;-74
2021/10/11 02:22:16;;;;;;;22.25;3.33;;;;;;;11.62;66.80;101023.94;5028791;28;20546;-74
2021/10/11 02:24:42;;;;;;;23.90;2.30;;;;;;;11.97;66.23;101009.97;5010945;28;20036;-75
2021/10/11 02:27:08;;;;;;;17.20;2.53;;;;;;;11.77;66.92;101001.22;5017082;28;20390;-75
2021/10/11 02:29:33;;;;;;;19.73;2.33;;;;;;;11.83;66.72;101003.84;5024648;28;20128;-75
2021/10/11 02:31:59;;;;;;;20.48;2.15;;;;;;;11.72;67.41;101007.25;5027663;28;20108;-75
2021/10/11 02:34:24;;;;;;;25.17;2.70;;;;;;;11.79;66.78;100999.13;5024054;28;20065;-74
2021/10/11 02:36:50;;;;;;;29.92;3.10;;;;;;;11.83;66.90;101011.13;5021745;28;20735;-75
2021/10/11 02:39:16;;;;;;;12.80;2.20;;;;;;;11.95;66.31;101005.84;5017609;28;20029;-75
2021/10/11 02:41:41;;;;;;;27.40;3.20;;;;;;;11.78;66.69;101006.38;5016457;28;20137;-75
2021/10/11 02:44:07;;;;;;;18.23;2.38;;;;;;;11.95;66.31;100995.88;5021281;28;20029;-75
2021/10/11 02:46:32;;;;;;;13.35;2.38;;;;;;;11.93;66.25;100994.44;5018167;28;20042;-75
2021/10/11 02:48:58;;;;;;;17.35;2.72;;;;;;;11.86;66.45;100997.19;5008034;28;20557;-74
2021/10/11 02:51:24;;;;;;;16.48;2.33;;;;;;;11.63;67.04;100981.59;5008482;28;20491;-74
2021/10/11 02:53:49;;;;;;;14.63;2.60;;;;;;;11.94;66.17;100960.97;5014580;28;20030;-74
2021/10/11 02:56:16;;;;;;;20.88;2.53;;;;;;;11.95;65.76;100978.84;5013294;28;20046;-74
2021/10/11 02:58:42;;;;;;;23.27;2.58;;;;;;;11.92;65.77;100982.81;5019866;28;20034;-75
2021/10/11 03:01:08;;;;;;;20.58;2.33;;;;;;;11.75;66.23;101003.31;5017301;28;20444;-75
2021/10/11 03:03:33;;;;;;;22.02;3.13;;;;;;;11.82;65.96;101007.59;5011043;28;20041;-74
2021/10/11 03:05:59;;;;;;;23.85;2.97;;;;;;;11.85;65.71;100990.16;5011260;28;20034;-75
2021/10/11 03:08:25;;;;;;;22.48;2.38;;;;;;;11.83;65.74;100992.25;5029756;28;20041;-75
2021/10/11 03:10:50;;;;;;;17.35;2.30;;;;;;;11.96;65.13;100988.59;5015297;28;20173;-74
2021/10/11 03:13:16;;;;;;;16.27;2.97;;;;;;;11.91;65.41;100991.13;5014960;28;20086;-75
2021/10/11 03:15:41;;;;;;;17.33;2.75;;;;;;;11.73;66.10;100991.91;5028184;28;20569;-75
2021/10/11 03:18:08;;;;;;;19.90;3.35;;;;;;;11.60;66.48;100999.06;5023228;28;20022;-75
2021/10/11 03:20:33;;;;;;;21.88;3.00;;;;;;;11.43;66.91;100987.94;5020151;28;20065;-76
2021/10/11 03:22:59;;;;;;;23.42;2.60;;;;;;;11.68;66.00;100979.06;5015751;28;20033;-75
2021/10/11 03:25:24;;;;;;;19.42;3.10;;;;;;;11.68;65.71;100985.31;5024861;28;20033;-75
2021/10/11 03:27:50;;;;;;;16.85;2.42;;;;;;;11.60;65.95;100996.38;5018840;28;20491;-75
2021/10/11 03:30:15;;;;;;;26.70;3.28;;;;;;;11.69;65.95;100989.66;5015585;28;20034;-75
2021/10/11 03:32:41;;;;;;;24.58;2.03;;;;;;;11.72;65.41;100988.38;5017115;28;20506;-75
2021/10/11 03:35:07;;;;;;;18.73;2.90;;;;;;;11.85;65.02;100995.53;5021119;28;20479;-75
2021/10/11 03:37:32;;;;;;;14.75;1.88;;;;;;;11.74;65.50;100988.16;5018726;28;20044;-75
2021/10/11 03:39:58;;;;;;;12.00;2.10;;;;;;;11.82;64.94;100987.88;5013544;28;20041;-75
2021/10/11 03:42:23;;;;;;;22.48;2.70;;;;;;;11.75;65.29;100989.81;5031628;28;20060;-75
2021/10/11 03:44:49;;;;;;;21.08;2.35;;;;;;;11.42;65.77;100989.81;5030679;28;20042;-74
2021/10/11 03:47:14;;;;;;;20.15;2.80;;;;;;;11.68;65.54;100996.09;5017711;28;20053;-75
2021/10/11 03:49:40;;;;;;;20.25;2.90;;;;;;;11.66;65.76;100995.50;5031462;28;20041;-75
2021/10/11 03:52:06;;;;;;;11.50;2.20;;;;;;;11.61;65.90;100995.31;5026295;28;20038;-74
2021/10/11 03:54:31;;;;;;;17.83;2.50;;;;;;;11.53;65.68;100995.56;5030471;28;20478;-75
2021/10/11 03:56:57;;;;;;;18.50;2.55;;;;;;;11.74;64.63;101005.16;5027323;28;20037;-75
2021/10/11 03:59:22;;;;;;;13.23;1.77;;;;;;;11.78;64.22;101002.88;5014217;28;20021;-74
2021/10/11 04:01:48;;;;;;;12.60;1.80;;;;;;;11.65;64.91;100995.69;5012352;28;20388;-75
2021/10/11 04:04:14;;;;;;;14.50;2.35;;;;;;;11.59;64.79;100983.06;5015916;28;20100;-74
2021/10/11 04:06:39;;;;;;;18.42;2.75;;;;;;;11.60;64.64;100982.88;5020509;28;20492;-75
2021/10/11 04:09:05;;;;;;;10.93;1.80;;;;;;;11.45;65.02;100985.88;5012639;28;20566;-75
2021/10/11 04:11:32;;;;;;;21.27;2.20;;;;;;;11.59;64.56;100970.41;5014361;28;20117;-74
2021/10/11 04:13:58;;;;;;;21.48;2.15;;;;;;;11.77;63.87;100968.84;5016248;28;20069;-74
2021/10/11 04:16:23;;;;;;;15.15;2.15;;;;;;;11.56;64.08;100957.38;5018504;28;20058;-74
2021/10/11 04:18:49;;;;;;;20.48;1.60;;;;;;;11.59;64.40;100972.28;5016312;28;20033;-74
2021/10/11 04:21:15;;;;;;;15.85;2.42;;;;;;;11.65;63.81;100971.41;5028371;28;20199;-73
2021/10/11 04:23:41;;;;;;;14.98;2.55;;;;;;;11.42;64.52;100980.91;5014467;28;20030;-74
2021/10/11 04:26:06;;;;;;;22.60;2.88;;;;;;;11.54;64.27;100979.16;5012175;28;20033;-72
2021/10/11 04:28:32;;;;;;;18.75;1.92;;;;;;;11.48;64.25;100971.09;5013044;28;20475;-76
2021/10/11 04:30:57;;;;;;;19.00;2.17;;;;;;;11.66;64.12;100983.84;5012022;28;20108;-75
2021/10/11 04:33:24;;;;;;;21.10;2.80;;;;;;;11.50;64.38;100979.81;5011742;28;20026;-75
2021/10/11 04:35:50;;;;;;;22.85;2.67;;;;;;;11.49;63.86;100976.28;5016077;28;20479;-75
2021/10/11 04:38:16;;;;;;;19.42;2.00;;;;;;;11.58;63.88;100968.78;5012136;28;20046;-75
2021/10/11 04:40:42;;;;;;;20.65;2.65;;;;;;;11.40;64.95;100967.63;5014880;28;20373;-75
2021/10/11 04:43:08;;;;;;;14.50;2.17;;;;;;;11.45;64.44;100979.63;5013613;28;20034;-75
2021/10/11 04:45:33;;;;;;;13.13;2.13;;;;;;;11.32;64.56;100985.94;5015765;28;20500;-75
2021/10/11 04:48:05;;;;;;;21.83;2.95;;;;;;;11.17;65.50;100987.06;5013019;28;20391;-75
2021/10/11 04:50:32;;;;;;;15.38;2.17;;;;;;;11.23;65.73;100986.22;5014018;28;20076;-75
2021/10/11 04:52:59;;;;;;;17.92;2.42;;;;;;;11.20;64.84;100993.88;5015852;28;20086;-75
2021/10/11 04:55:24;;;;;;;17.48;2.10;;;;;;;11.15;65.32;100993.72;5010697;28;20120;-74
2021/10/11 04:57:50;;;;;;;24.55;2.75;;;;;;;10.96;66.43;101001.69;5015222;28;20034;-75
2021/10/11 05:00:16;;;;;;;11.15;1.80;;;;;;;10.87;66.32;100994.88;5012703;28;20038;-75
2021/10/11 05:02:42;;;;;;;21.85;3.58;;;;;;;10.75;67.10;100989.34;5012148;28;20057;-75
2021/10/11 05:05:08;;;;;;;16.00;1.95;;;;;;;10.76;66.86;100997.19;5012508;28;20169;-75
2021/10/11 05:07:34;;;;;;;10.93;1.60;;;;;;;10.58;67.60;101000.56;5014661;28;20033;-75
2021/10/11 05:10:00;;;;;;;20.77;2.67;;;;;;;10.50;68.47;100993.53;5014747;28;20038;-75
2021/10/11 05:12:25;;;;;;;10.43;2.22;;;;;;;10.35;68.00;100988.34;5016365;28;20105;-75
2021/10/11 05:14:51;;;;;;;13.18;2.45;;;;;;;10.29;68.91;100980.31;5011911;28;20483;-75
2021/10/11 05:17:17;;;;;;;23.52;3.15;;;;;;;10.16;69.01;100970.38;5011036;28;20403;-75
2021/10/11 05:19:42;;;;;;;25.25;2.67;;;;;;;10.16;69.39;100978.44;5014364;28;20506;-75
2021/10/11 05:22:08;;;;;;;15.02;2.45;;;;;;;10.12;69.08;100975.38;5011170;28;20080;-75
2021/10/11 05:24:34;;;;;;;16.27;2.40;;;;;;;10.12;69.98;100978.06;5014145;28;20092;-75
2021/10/11 05:26:59;;;;;;;18.38;2.50;;;;;;;10.09;70.15;100975.78;5011552;28;20040;-75
2021/10/11 05:29:25;;;;;;;15.27;2.63;;;;;;;10.08;69.50;100982.19;5016204;28;20033;-75
2021/10/11 05:31:51;;;;;;;19.35;2.38;;;;;;;10.05;68.83;100980.75;5017352;28;20122;-75
2021/10/11 05:34:17;;;;;;;13.02;1.83;;;;;;;9.92;68.99;100983.44;5016080;28;20041;-75
2021/10/11 05:36:43;;;;;;;19.05;2.10;;;;;;;9.81;68.94;100991.09;5022990;28;20036;-75
2021/10/11 05:39:10;;;;;;;15.30;2.08;;;;;;;9.65;70.72;100992.31;5015584;28;20469;-73
2021/10/11 05:41:35;;;;;;;14.68;1.90;;;;;;;9.66;70.63;100990.47;5008995;28;20037;-73
2021/10/11 05:44:01;;;;;;;22.05;2.15;;;;;;;9.71;70.96;101000.59;5017956;28;20041;-73
2021/10/11 05:46:27;;;;;;;14.65;1.70;;;;;;;9.87;71.19;100988.63;5020495;28;20052;-75
2021/10/11 05:48:52;;;;;;;18.35;3.13;;;;;;;9.90;70.23;100996.28;5036510;28;20032;-74
2021/10/11 05:51:18;;;;;;;17.25;2.40;;;;;;;10.00;70.94;101012.03;5019266;28;20080;-74
2021/10/11 05:53:43;;;;;;;15.93;2.60;;;;;;;10.08;70.10;101004.56;5020557;28;20061;-74
2021/10/11 05:56:09;;;;;;;13.15;2.45;;;;;;;9.99;70.42;101008.50;5017315;28;20105;-74
2021/10/11 05:58:35;;;;;;;20.50;2.85;;;;;;;9.89;69.82;101011.59;5011823;28;20447;-75
2021/10/11 06:01:01;;;;;;;16.55;2.10;;;;;;;9.85;71.04;101012.22;5020183;28;20045;-75
2021/10/11 06:03:26;;;;;;;17.80;2.65;;;;;;;9.84;70.90;101011.41;5020282;28;20049;-69
2021/10/11 06:05:52;;;;;;;16.13;2.60;;;;;;;9.79;69.97;101013.88;5021743;28;20057;-74
2021/10/11 06:08:19;;;;;;;10.70;1.92;;;;;;;9.77;70.18;101003.31;5015077;28;20118;-72
2021/10/11 06:10:45;;;;;;;20.95;2.67;;;;;;;9.72;70.50;101011.16;5014486;28;20029;-71
2021/10/11 06:13:10;;;;;;;21.92;2.55;;;;;;;9.68;70.66;101012.63;5013549;28;20398;-72
2021/10/11 06:15:36;;;;;;;20.05;2.78;;;;;;;9.71;71.57;101017.59;5012950;28;20034;-71
2021/10/11 06:18:02;;;;;;;15.88;2.40;;;;;;;9.76;71.62;101011.59;5013635;28;20451;-69
2021/10/11 06:20:27;;;;;;;22.02;2.17;;;;;;;9.82;71.21;101008.09;5011657;28;20042;-73
2021/10/11 06:22:53;;;;;;;23.08;2.70;;;;;;;9.84;71.27;101005.19;5021857;28;20156;-70
2021/10/11 06:25:19;;;;;;;15.40;2.72;;;;;;;9.94;71.32;101002.91;5014240;28;20041;-72
2021/10/11 06:27:44;;;;;;;26.17;2.65;;;;;;;9.92;70.96;101000.44;5018128;28;20080;-73
2021/10/11 06:30:10;;;;;;;22.08;2.28;;;;;;;10.01;70.90;100992.16;5019456;28;20495;-74
2021/10/11 06:32:36;;;;;;;19.30;2.33;;;;;;;10.05;70.64;101004.16;5009050;28;20060;-75
2021/10/11 06:35:01;;;;;;;20.50;3.65;;;;;;;10.04;71.15;101007.88;5016576;28;20034;-71
2021/10/11 06:37:27;;;;;;;18.83;2.17;;;;;;;10.11;70.63;101016.78;5014263;28;20701;-73
2021/10/11 06:39:52;;;;;;;23.42;2.17;;;;;;;10.25;70.99;101014.88;5018098;28;20575;-73
2021/10/11 06:42:18;;;;;;;15.25;2.35;;;;;;;10.30;70.28;101019.66;5013487;28;20041;-72
2021/10/11 06:44:43;;;;;;;18.65;2.50;;;;;;;10.33;70.25;101022.75;5012065;28;20036;-73
2021/10/11 06:47:09;;;;;;;35.45;20.88;;;;;;;10.59;69.36;101021.06;5019908;28;20121;-73
2021/10/11 06:49:35;;;;;;;24.15;5.30;;;;;;;10.63;68.84;101029.56;5013751;28;20538;-73
2021/10/11 06:52:01;;;;;;;14.95;2.15;;;;;;;10.76;68.73;101032.22;5012839;28;20038;-72
2021/10/11 06:54:27;;;;;;;16.88;2.10;;;;;;;10.80;68.44;101040.72;5019690;28;20161;-72
2021/10/11 06:56:52;;;;;;;17.40;2.72;;;;;;;11.01;68.42;101034.22;5021837;28;20558;-74
2021/10/11 06:59:18;;;;;;;27.02;7.47;;;;;;;11.18;67.34;101036.41;5020672;28;20029;-70
2021/10/11 07:01:44;;;;;;;16.63;2.65;;;;;;;11.28;67.08;101032.22;5028659;28;20053;-74
2021/10/11 07:04:13;;;;;;;12.00;1.88;;;;;;;11.30;67.03;101034.69;5016373;28;20029;-77
2021/10/11 07:06:41;;;;;;;23.48;2.65;;;;;;;11.50;66.34;101031.91;5024762;28;20102;-73
2021/10/11 07:09:06;;;;;;;16.75;2.30;;;;;;;11.37;67.22;101027.41;5021099;28;20060;-75
2021/10/11 07:11:32;;;;;;;17.88;2.63;;;;;;;11.83;65.83;101027.34;5014535;28;20029;-74
2021/10/11 07:13:57;;;;;;;17.80;2.50;;;;;;;11.82;66.34;101028.38;5021350;28;20038;-64
2021/10/11 07:16:23;;;;;;;25.02;2.42;;;;;;;11.89;65.48;101029.16;5018731;28;20061;-74
2021/10/11 07:18:48;;;;;;;21.50;3.08;;;;;;;12.07;65.55;101031.09;5020618;28;20049;-73
2021/10/11 07:21:14;;;;;;;20.67;2.55;;;;;;;12.14;64.90;101031.88;5026141;28;20059;-73
2021/10/11 07:23:40;;;;;;;24.35;5.57;;;;;;;12.25;65.13;101041.13;5014368;28;20133;-75
2021/10/11 07:26:06;;;;;;;17.35;3.05;;;;;;;12.35;64.89;101029.00;5022222;28;20085;-74
2021/10/11 07:28:32;;;;;;;14.02;2.90;;;;;;;12.24;65.37;101039.47;5023409;28;20033;-74
2021/10/11 07:30:58;;;;;;;17.15;2.42;;;;;;;12.28;65.21;101045.25;5020785;28;20120;-73
2021/10/11 07:33:24;;;;;;;21.98;3.33;;;;;;;12.40;64.96;101042.66;5019172;28;20104;-73
2021/10/11 07:35:50;;;;;;;17.15;3.05;;;;;;;12.40;65.15;101040.81;5029859;28;20084;-75
2021/10/11 07:38:16;;;;;;;16.27;2.92;;;;;;;12.57;64.56;101035.63;5015345;28;20114;-74
2021/10/11 07:40:41;;;;;;;21.00;2.50;;;;;;;12.69;64.26;101041.13;5027460;28;20562;-74
2021/10/11 07:43:07;;;;;;;25.13;3.38;;;;;;;12.65;64.53;101039.09;5020776;28;20109;-75
2021/10/11 07:45:33;;;;;;;15.98;2.20;;;;;;;12.51;64.67;101046.53;5025819;28;20475;-78
2021/10/11 07:47:59;;;;;;;22.55;2.80;;;;;;;12.57;64.53;101046.44;5019094;28;20037;-75
2021/10/11 07:50:24;;;;;;;12.68;2.05;;;;;;;12.54;64.54;101046.06;5016370;28;20498;-75
2021/10/11 07:52:50;;;;;;;13.38;1.77;;;;;;;12.64;64.49;101057.19;5016246;28;20455;-76
2021/10/11 07:55:16;;;;;;;15.38;3.88;;;;;;;12.66;64.83;101059.66;5015058;28;20045;-75
2021/10/11 07:57:42;;;;;;;15.02;2.22;;;;;;;12.70;64.74;101069.81;5024065;28;20030;-75
2021/10/11 08:00:13;;;;;;;16.67;2.95;;;;;;;12.69;64.91;101065.47;5017827;28;20541;-75
2021/10/11 08:02:39;;;;;;;21.20;3.53;;;;;;;12.61;65.06;101070.31;5020886;28;20061;-74
2021/10/11 08:05:05;;;;;;;18.38;2.42;;;;;;;12.67;64.61;101077.53;5024062;28;20036;-71
2021/10/11 08:07:31;;;;;;;15.02;2.00;;;;;;;12.81;64.39;101067.41;5020324;28;20042;-74
2021/10/11 08:09:56;;;;;;;14.30;2.40;;;;;;;12.77;64.38;101071.63;5019000;28;20107;-75
2021/10/11 08:12:22;;;;;;;16.75;2.42;;;;;;;12.94;64.07;101069.97;5020596;28;20037;-74
2021/10/11 08:14:48;;;;;;;11.50;1.80;;;;;;;12.99;63.86;101072.81;5014665;28;20088;-76
2021/10/11 08:17:13;;;;;;;11.55;2.33;;;;;;;13.14;63.76;101077.81;5020771;28;20044;-75
2021/10/11 08:19:39;;;;;;;18.02;3.30;;;;;;;13.13;63.85;101076.19;5027250;28;20036;-75
2021/10/11 08:22:05;;;;;;;13.35;2.30;;;;;;;13.35;63.36;101078.44;5002006;28;20041;-74
2021/10/11 08:24:31;;;;;;;16.95;2.22;;;;;;;13.48;63.41;101076.63;5015337;28;20104;-75
2021/10/11 08:26:56;;;;;;;17.38;2.55;;;;;;;13.52;62.74;101072.41;5039986;28;20024;-75
2021/10/11 08:29:22;;;;;;;13.38;2.15;;;;;;;13.77;62.50;101077.66;5032661;28;20080;-75
2021/10/11 08:31:48;;;;;;;16.83;2.53;;;;;;;13.79;61.86;101070.13;5008180;28;20041;-75
2021/10/11 08:34:14;;;;;;;16.58;1.98;;;;;;;14.00;61.40;101073.34;5019356;28;20044;-75
2021/10/11 08:36:39;;;;;;;11.15;1.73;;;;;;;13.98;61.65;101079.00;5024694;28;20084;-73
2021/10/11 08:39:05;;;;;;;19.05;2.20;;;;;;;14.03;61.68;101073.72;5017114;28;20038;-73
2021/10/11 08:41:31;;;;;;;16.40;2.45;;;;;;;14.22;61.09;101075.53;5010506;28;20045;-72
2021/10/11 08:43:56;;;;;;;17.60;2.22;;;;;;;14.15;61.26;101073.75;5026100;28;20038;-72
2021/10/11 08:46:25;;;;;;;14.10;2.33;;;;;;;14.54;60.18;101072.47;5020542;28;20069;-72
2021/10/11 08:48:51;;;;;;;16.45;1.77;;;;;;;14.51;59.53;101067.53;5024362;28;20030;-72
2021/10/11 08:51:17;;;;;;;17.80;1.92;;;;;;;14.44;59.92;101075.75;5011452;28;20038;-72
2021/10/11 08:53:42;;;;;;;12.77;2.15;;;;;;;14.43;59.77;101071.41;5022946;28;20034;-72
2021/10/11 08:56:11;;;;;;;16.95;1.95;;;;;;;14.15;60.87;101071.06;5022981;28;20042;-72
2021/10/11 08:58:46;;;;;;;11.90;1.67;;;;;;;14.48;60.10;101075.06;5022192;28;20399;-74
2021/10/11 09:01:13;;;;;;;13.43;1.50;;;;;;;14.41;60.59;101073.53;4991197;28;20030;-74
2021/10/11 09:03:39;;;;;;;15.23;2.00;;;;;;;14.60;59.87;101077.75;5016712;28;20038;-74
2021/10/11 09:06:10;;;;;;;14.00;2.17;;;;;;;14.87;59.34;101077.28;5021687;28;20036;-74
2021/10/11 09:08:38;;;;;;;17.35;1.95;;;;;;;14.70;59.62;101068.22;5023684;28;20041;-74
2021/10/11 09:11:06;;;;;;;9.55;1.95;;;;;;;14.62;59.75;101077.53;5009509;28;20090;-74
2021/10/11 09:13:39;;;;;;;12.73;1.48;;;;;;;14.83;59.79;101065.25;5018509;28;20045;-75
2021/10/11 09:16:41;;;;;;;11.52;1.40;;;;;;;14.91;59.15;101064.91;5026146;28;20033;-75
2021/10/11 09:19:10;;;;;;;18.63;2.28;;;;;;;14.80;58.93;101068.44;5026100;28;20041;-75
2021/10/11 09:21:36;;;;;;;10.93;1.60;;;;;;;15.12;58.28;101072.66;5009806;28;20034;-74
2021/10/11 09:24:07;;;;;;;17.23;2.38;;;;;;;14.93;58.89;101080.94;5033718;28;20399;-75
2021/10/11 09:26:53;;;;;;;17.40;2.63;;;;;;;14.81;59.10;101077.44;5031483;28;20033;-75
2021/10/11 09:29:34;;;;;;;9.15;1.40;;;;;;;14.98;58.63;101072.06;5022278;28;20033;-75
2021/10/11 09:32:03;;;;;;;15.27;2.17;;;;;;;14.81;59.03;101080.13;5004061;28;20034;-75
2021/10/11 09:34:28;;;;;;;6.65;1.33;;;;;;;15.01;58.93;101077.88;5022638;28;20064;-74
2021/10/11 09:37:05;;;;;;;9.77;1.90;;;;;;;15.09;58.52;101079.38;5022889;28;20128;-74
2021/10/11 09:39:34;;;;;;;9.23;1.50;;;;;;;15.14;58.85;101082.22;5015508;28;20044;-73
2021/10/11 09:42:01;;;;;;;8.48;1.67;;;;;;;15.31;58.18;101068.69;5006575;28;20030;-73
2021/10/11 09:44:27;;;;;;;14.13;2.05;;;;;;;15.33;57.77;101068.47;5030091;28;20043;-74
2021/10/11 09:49:25;;;;;;;9.82;1.50;;;;;;;15.41;58.05;101057.22;5026114;28;20041;-74
2021/10/11 09:51:56;;;;;;;13.93;1.60;;;;;;;15.02;57.76;101057.81;5017597;28;20482;-73
2021/10/11 09:54:23;;;;;;;5.43;1.00;;;;;;;15.28;57.31;101057.50;5017162;28;20054;-73
2021/10/11 09:56:49;;;;;;;9.35;1.65;;;;;;;15.11;57.84;101060.13;5016209;28;20037;-74
2021/10/11 09:59:16;;;;;;;8.02;1.20;;;;;;;15.24;57.84;101062.56;5015516;28;20030;-75
2021/10/11 10:01:44;;;;;;;8.60;1.52;;;;;;;15.27;58.62;101070.22;5026824;28;20038;-73
2021/10/11 10:04:21;;;;;;;9.38;1.40;;;;;;;15.17;59.04;101060.03;5018228;28;20034;-74
2021/10/11 10:06:49;;;;;;;9.77;1.30;;;;;;;15.26;58.61;101063.16;5018580;28;20076;-75
2021/10/11 10:09:18;;;;;;;8.52;1.17;;;;;;;15.46;58.44;101076.31;5019929;28;20065;-73
2021/10/11 10:11:44;;;;;;;12.85;1.85;;;;;;;15.50;57.87;101066.63;5007845;28;20022;-72
2021/10/11 10:14:24;;;;;;;7.22;1.52;;;;;;;15.89;57.88;101074.09;5011794;28;20068;-72
2021/10/11 10:16:52;;;;;;;9.25;1.67;;;;;;;16.09;57.25;101073.63;5018827;28;20108;-72
2021/10/11 10:19:20;;;;;;;9.80;1.77;;;;;;;16.23;56.87;101065.97;5021169;28;20029;-72
2021/10/11 10:21:46;;;;;;;9.23;1.17;;;;;;;16.14;55.64;101059.31;5021871;28;20033;-74
2021/10/11 10:24:23;;;;;;;9.57;1.40;;;;;;;16.47;55.34;101062.22;5019940;28;20098;-73
2021/10/11 10:26:48;;;;;;;11.02;1.63;;;;;;;16.37;55.62;101065.63;5016169;28;20243;-73
2021/10/11 10:29:23;;;;;;;6.13;1.30;;;;;;;16.35;55.02;101074.03;5016301;28;20561;-73
2021/10/11 10:31:48;;;;;;;6.35;1.15;;;;;;;16.45;55.10;101058.94;5024938;28;20029;-73
2021/10/11 10:34:19;;;;;;;9.38;1.63;;;;;;;16.77;54.64;101071.88;5027303;28;20045;-73
2021/10/11 10:36:46;;;;;;;6.30;1.27;;;;;;;16.63;54.34;101063.28;5024799;28;20056;-73
2021/10/11 10:39:14;;;;;;;6.90;1.33;;;;;;;16.83;53.80;101057.31;5028168;28;20041;-74
2021/10/11 10:41:53;;;;;;;8.73;1.38;;;;;;;16.23;54.70;101071.41;5025015;28;20037;-74
2021/10/11 10:44:20;;;;;;;7.15;1.38;;;;;;;16.50;53.94;101067.16;5021687;28;20037;-74
2021/10/11 10:46:50;;;;;;;8.57;1.73;;;;;;;16.00;55.13;101074.31;5026919;28;20021;-72
2021/10/11 10:49:27;;;;;;;7.68;1.17;;;;;;;16.04;55.11;101073.53;5017522;28;20056;-74
2021/10/11 10:51:53;;;;;;;7.38;1.30;;;;;;;16.08;55.04;101082.84;5026116;28;20037;-74
2021/10/11 10:54:19;;;;;;;16.50;2.03;;;;;;;15.97;55.88;101080.22;5026695;28;20041;-73
2021/10/11 10:56:52;;;;;;;9.88;1.70;;;;;;;15.94;55.88;101078.81;5021791;28;20030;-73
2021/10/11 10:59:23;;;;;;;7.63;1.30;;;;;;;16.18;55.36;101075.94;5024072;28;20190;-74
2021/10/11 11:01:49;;;;;;;14.88;2.28;;;;;;;16.56;54.90;101084.41;5021095;28;20030;-80
2021/10/11 11:04:22;;;;;;;10.15;1.60;;;;;;;16.65;53.80;101075.53;5025111;28;20037;-73
2021/10/11 11:06:59;;;;;;;11.55;1.88;;;;;;;16.75;54.49;101069.44;5027563;28;20467;-74
2021/10/11 11:09:44;;;;;;;11.93;1.50;;;;;;;16.74;54.49;101067.78;5024201;28;20532;-71
2021/10/11 11:12:12;;;;;;;9.60;1.58;;;;;;;16.56;54.82;101079.75;5018662;28;20034;-73
2021/10/11 11:14:44;;;;;;;10.20;2.15;;;;;;;16.96;53.66;101069.69;5014852;28;20056;-73
2021/10/11 11:17:13;;;;;;;12.43;1.92;;;;;;;17.27;53.19;101067.38;5010101;28;20038;-75
2021/10/11 11:19:43;;;;;;;8.18;1.30;;;;;;;16.78;53.37;101059.94;5025364;28;20057;-74